Ganges, Canada
Current Conditions -  °F | °C
As of 6:54 AM on Tuesday 21 Oct 2014 (Local Time) from CYYJ Reporting Station
Light Rain Light Rain  
Wind Chill: 54°   Ceiling: 6500
Heat Index: 54°   Visibility: 5mi
Dew Point: 52°   Wind: 7mph
Humidity: 94%   Direction: 80°E
Pressure: 29.79"   Gusts: NA
Location:  48.85°N, 123.52°W
Report Text: CYYJ 211354Z 08006KT 010V120 5SM -RA BR FEW004 BKN065 BKN091 12/11 A2979 RMK SF1SC5AC2 SF TR SLP087
Loading
Personal Weather Stations






























Interactive Weather Map
Tropical Storm Tracking
New forecast layout! Learn more

10-Day Weather Forecast

Advertisements
Track Severe Weather on mobile